Snow/Ice From: 17-12-2017 10:00 Until: 18-12-2017 06:00 warning for: Snow/Ice Level: Yellow info button

Although rather usual in this region, locally or potentially dangerous phenomena are expected. (such as local winds, summer thunderstorms, rising streams or high waves) Be aware and pay attention to the latest weather updates, especially if you carry out activities exposed to weather or close to a stream or shoreline. 


Meteo18 Weather Cam more information Meteo18 Weather Cam


Thunder radar more information blitzortung!


warning for Snow/Ice more information rain snow radar


Visit our other weather sites:

Template documentation
and downloads

And another site



Weather Underground History page Text

Daily Summary for April 24, 2017 Units:  Metric    English   Both
« Previous Day
Next Day »
Daily Weekly Monthly Yearly Custom
  High: Low: Average:
Temperature: 19.1 °C 2.9 °C 11.3 °C
Dew Point: 4.9 °C -0.4 °C 2 °C
Humidity: 79 % 35 % 55 %
Wind Speed: 11.3 km/h 0.0 km/h 2.5 km/h
Wind Gust: 17.7 km/h - -
Wind:- - SSW
Pressure: 1022.2 hPa 1012.1 hPa -
Precipitation: 0.0 mm    
Historical Graphs
 
 
Tabular Data for April 24, 2017
Time Temperature Dew Point Pressure Wind Wind Speed Wind Gust Humidity Rainfall Rate (Hourly)
00:02 7.2 °C 1.1 °C 1022.2 hPa NNW 3.2 km/h 6.4 km/h 65 % 0.0 mm
00:12 7.0 °C 1.1 °C 1021.9 hPa NE 3.2 km/h 6.4 km/h 66 % 0.0 mm
00:17 6.9 °C 1.0 °C 1021.9 hPa Calm   9.7 km/h 66 % 0.0 mm
00:22 6.9 °C 1.0 °C 1021.9 hPa North 3.2 km/h 9.7 km/h 66 % 0.0 mm
00:32 6.8 °C 0.9 °C 1021.9 hPa North 4.8 km/h 8.0 km/h 66 % 0.0 mm
00:37 6.9 °C 1.0 °C 1021.9 hPa North 4.8 km/h 8.0 km/h 66 % 0.0 mm
00:42 6.9 °C 1.0 °C 1021.6 hPa NNE 3.2 km/h 11.3 km/h 66 % 0.0 mm
00:52 6.8 °C 0.9 °C 1021.6 hPa NNE 3.2 km/h 9.7 km/h 66 % 0.0 mm
00:57 6.8 °C 0.9 °C 1021.6 hPa NNE 4.8 km/h 6.4 km/h 66 % 0.0 mm
01:02 6.7 °C 0.8 °C 1021.6 hPa NNW 1.6 km/h 6.4 km/h 66 % 0.0 mm
01:07 6.7 °C 0.8 °C 1021.6 hPa NNW 1.6 km/h 6.4 km/h 66 % 0.0 mm
01:17 6.5 °C 0.8 °C 1021.6 hPa Calm   6.4 km/h 67 % 0.0 mm
01:32 6.4 °C 0.7 °C 1021.6 hPa WNW 1.6 km/h 6.4 km/h 67 % 0.0 mm
01:37 6.2 °C 0.5 °C 1021.2 hPa Calm   4.8 km/h 67 % 0.0 mm
01:42 6.2 °C 0.7 °C 1021.2 hPa NW 1.6 km/h 4.8 km/h 68 % 0.0 mm
01:47 6.2 °C 0.5 °C 1021.2 hPa NNW 1.6 km/h 3.2 km/h 67 % 0.0 mm
01:52 6.1 °C 0.6 °C 1021.2 hPa Calm   3.2 km/h 68 % 0.0 mm
01:57 6.1 °C 0.6 °C 1021.2 hPa NW 1.6 km/h 3.2 km/h 68 % 0.0 mm
02:02 6.1 °C 0.6 °C 1021.2 hPa North 1.6 km/h 3.2 km/h 68 % 0.0 mm
02:12 5.9 °C 0.4 °C 1020.9 hPa Calm   3.2 km/h 68 % 0.0 mm
02:17 5.9 °C 0.4 °C 1020.9 hPa NW 1.6 km/h 3.2 km/h 68 % 0.0 mm
02:22 5.9 °C 0.4 °C 1020.9 hPa North 1.6 km/h 3.2 km/h 68 % 0.0 mm
02:27 6.0 °C 0.5 °C 1020.9 hPa NNW 1.6 km/h 6.4 km/h 68 % 0.0 mm
02:32 5.9 °C 0.4 °C 1020.5 hPa North 1.6 km/h 6.4 km/h 68 % 0.0 mm
02:37 5.9 °C 0.4 °C 1020.5 hPa Calm   6.4 km/h 68 % 0.0 mm
02:42 5.8 °C 0.4 °C 1020.5 hPa Calm   6.4 km/h 68 % 0.0 mm
02:52 5.8 °C 0.4 °C 1020.5 hPa NNW 1.6 km/h 6.4 km/h 68 % 0.0 mm
02:57 5.8 °C 0.4 °C 1020.5 hPa NNW 1.6 km/h 4.8 km/h 68 % 0.0 mm
03:02 5.8 °C 0.4 °C 1020.5 hPa Calm   4.8 km/h 68 % 0.0 mm
03:12 5.8 °C 0.4 °C 1020.2 hPa North 1.6 km/h 6.4 km/h 68 % 0.0 mm
03:17 5.7 °C 0.5 °C 1020.2 hPa NW 3.2 km/h 6.4 km/h 69 % 0.0 mm
03:22 5.6 °C 0.4 °C 1020.2 hPa NNE 1.6 km/h 6.4 km/h 69 % 0.0 mm
03:32 5.3 °C 0.3 °C 1020.2 hPa NNW 3.2 km/h 6.4 km/h 70 % 0.0 mm
03:42 5.2 °C 0.2 °C 1020.2 hPa North 1.6 km/h 6.4 km/h 70 % 0.0 mm
03:47 5.1 °C 0.3 °C 1019.9 hPa Calm   6.4 km/h 71 % 0.0 mm
03:52 5.0 °C 0.2 °C 1019.9 hPa Calm   6.4 km/h 71 % 0.0 mm
03:57 4.9 °C 0.1 °C 1019.9 hPa NNE 1.6 km/h 4.8 km/h 71 % 0.0 mm
04:02 4.8 °C 0.2 °C 1019.9 hPa NNE 3.2 km/h 4.8 km/h 72 % 0.0 mm
04:12 4.6 °C 0.2 °C 1019.9 hPa North 3.2 km/h 4.8 km/h 73 % 0.0 mm
04:17 4.6 °C 0.2 °C 1019.9 hPa Calm   4.8 km/h 73 % 0.0 mm
04:22 4.4 °C 0.2 °C 1019.9 hPa North 1.6 km/h 4.8 km/h 74 % 0.0 mm
04:27 4.4 °C 0.2 °C 1019.9 hPa NNW 3.2 km/h 4.8 km/h 74 % 0.0 mm
04:32 4.4 °C 0.2 °C 1019.5 hPa Calm   4.8 km/h 74 % 0.0 mm
04:37 4.4 °C 0.2 °C 1019.5 hPa Calm   4.8 km/h 74 % 0.0 mm
04:42 4.3 °C 0.3 °C 1019.5 hPa NNE 3.2 km/h 4.8 km/h 75 % 0.0 mm
04:47 4.2 °C 0.2 °C 1019.5 hPa North 1.6 km/h 6.4 km/h 75 % 0.0 mm
04:52 4.1 °C 0.1 °C 1019.5 hPa NNE 1.6 km/h 6.4 km/h 75 % 0.0 mm
05:02 4.0 °C 0.2 °C 1019.5 hPa Calm   6.4 km/h 76 % 0.0 mm
05:12 3.8 °C 0.0 °C 1019.5 hPa Calm   3.2 km/h 76 % 0.0 mm
05:22 2.9 °C -0.4 °C 1019.2 hPa NNW 1.6 km/h 1.6 km/h 79 % 0.0 mm
05:32 3.4 °C -0.1 °C 1019.2 hPa North 3.2 km/h 3.2 km/h 78 % 0.0 mm
05:42 3.8 °C 0.0 °C 1019.2 hPa NNW 1.6 km/h 4.8 km/h 76 % 0.0 mm
05:52 3.8 °C 0.0 °C 1018.8 hPa North 4.8 km/h 4.8 km/h 76 % 0.0 mm
05:57 3.7 °C 0.0 °C 1018.8 hPa NNW 1.6 km/h 4.8 km/h 77 % 0.0 mm
06:02 3.6 °C -0.1 °C 1018.8 hPa NNW 1.6 km/h 4.8 km/h 77 % 0.0 mm
06:12 3.6 °C -0.1 °C 1018.8 hPa NNE 1.6 km/h 4.8 km/h 77 % 0.0 mm
06:17 3.5 °C -0.2 °C 1018.8 hPa Calm   4.8 km/h 77 % 0.0 mm
06:22 3.4 °C -0.2 °C 1018.8 hPa Calm   4.8 km/h 77 % 0.0 mm
06:27 3.4 °C -0.1 °C 1018.8 hPa NNW 1.6 km/h 4.8 km/h 78 % 0.0 mm
06:32 3.5 °C -0.2 °C 1018.8 hPa NNW 1.6 km/h 4.8 km/h 77 % 0.0 mm
06:37 3.6 °C -0.1 °C 1018.8 hPa NNW 1.6 km/h 4.8 km/h 77 % 0.0 mm
06:42 3.7 °C -0.1 °C 1018.8 hPa North 1.6 km/h 3.2 km/h 76 % 0.0 mm
06:57 3.8 °C 0.0 °C 1018.5 hPa Calm   3.2 km/h 76 % 0.0 mm
07:02 3.9 °C -0.1 °C 1018.5 hPa NNW 1.6 km/h 3.2 km/h 75 % 0.0 mm
07:12 4.1 °C 0.1 °C 1018.5 hPa NNW 1.6 km/h 3.2 km/h 75 % 0.0 mm
07:17 4.2 °C 0.0 °C 1018.5 hPa North 1.6 km/h 3.2 km/h 74 % 0.0 mm
07:22 4.2 °C 0.0 °C 1018.5 hPa North 1.6 km/h 3.2 km/h 74 % 0.0 mm
07:32 4.1 °C 0.1 °C 1018.5 hPa North 3.2 km/h 4.8 km/h 75 % 0.0 mm
07:37 4.2 °C 0.2 °C 1018.5 hPa North 3.2 km/h 4.8 km/h 75 % 0.0 mm
07:42 4.3 °C 0.3 °C 1018.5 hPa Calm   4.8 km/h 75 % 0.0 mm
07:52 4.8 °C 0.7 °C 1018.5 hPa Calm   4.8 km/h 75 % 0.0 mm
08:02 5.3 °C 1.0 °C 1018.5 hPa North 1.6 km/h 4.8 km/h 74 % 0.0 mm
08:07 5.5 °C 1.0 °C 1018.5 hPa Calm   4.8 km/h 73 % 0.0 mm
08:12 5.7 °C 1.0 °C 1018.5 hPa North 3.2 km/h 4.8 km/h 72 % 0.0 mm
08:17 6.1 °C 1.4 °C 1018.5 hPa Calm   4.8 km/h 72 % 0.0 mm
08:22 6.3 °C 1.4 °C 1018.5 hPa North 1.6 km/h 4.8 km/h 71 % 0.0 mm
08:32 6.6 °C 1.7 °C 1018.5 hPa NE 1.6 km/h 6.4 km/h 71 % 0.0 mm
08:37 6.9 °C 1.6 °C 1018.5 hPa ENE 1.6 km/h 6.4 km/h 69 % 0.0 mm
08:42 7.0 °C 1.7 °C 1018.5 hPa ENE 1.6 km/h 6.4 km/h 69 % 0.0 mm
08:52 7.3 °C 2.0 °C 1018.5 hPa NE 1.6 km/h 3.2 km/h 69 % 0.0 mm
09:02 7.7 °C 2.2 °C 1018.5 hPa NE 1.6 km/h 4.8 km/h 68 % 0.0 mm
09:12 8.1 °C 2.3 °C 1018.5 hPa Calm   6.4 km/h 67 % 0.0 mm
09:17 8.2 °C 2.0 °C 1018.5 hPa ENE 3.2 km/h 6.4 km/h 65 % 0.0 mm
09:22 8.3 °C 2.1 °C 1018.5 hPa NE 1.6 km/h 8.0 km/h 65 % 0.0 mm
09:32 8.6 °C 2.6 °C 1018.2 hPa NNE 1.6 km/h 9.7 km/h 66 % 0.0 mm
09:37 8.8 °C 2.6 °C 1018.2 hPa NE 8.0 km/h 9.7 km/h 65 % 0.0 mm
09:42 8.9 °C 2.5 °C 1018.2 hPa ENE 6.4 km/h 11.3 km/h 64 % 0.0 mm
09:47 9.1 °C 2.4 °C 1018.2 hPa ENE 4.8 km/h 11.3 km/h 63 % 0.0 mm
09:52 9.4 °C 2.7 °C 1018.2 hPa East 4.8 km/h 9.7 km/h 63 % 0.0 mm
09:57 9.5 °C 2.4 °C 1018.2 hPa Calm   9.7 km/h 61 % 0.0 mm
10:02 9.8 °C 2.9 °C 1018.2 hPa NE 4.8 km/h 9.7 km/h 62 % 0.0 mm
10:12 10.0 °C 2.6 °C 1018.2 hPa NNE 6.4 km/h 8.0 km/h 60 % 0.0 mm
10:17 10.4 °C 3.0 °C 1017.8 hPa NE 4.8 km/h 8.0 km/h 60 % 0.0 mm
10:22 10.7 °C 2.5 °C 1018.2 hPa ENE 1.6 km/h 8.0 km/h 57 % 0.0 mm
10:32 11.0 °C 1.8 °C 1018.2 hPa NNE 6.4 km/h 6.4 km/h 53 % 0.0 mm
10:37 11.1 °C 2.4 °C 1018.2 hPa NE 4.8 km/h 4.8 km/h 55 % 0.0 mm
10:42 11.2 °C 2.5 °C 1018.2 hPa North 1.6 km/h 8.0 km/h 55 % 0.0 mm
10:52 12.1 °C 3.1 °C 1017.8 hPa NNE 3.2 km/h 6.4 km/h 54 % 0.0 mm
10:57 12.0 °C 1.9 °C 1017.8 hPa Calm   6.4 km/h 50 % 0.0 mm
11:02 12.3 °C 2.4 °C 1017.8 hPa ENE 3.2 km/h 8.0 km/h 51 % 0.0 mm
11:12 12.4 °C 2.3 °C 1017.8 hPa Calm   6.4 km/h 50 % 0.0 mm
11:17 12.6 °C 2.2 °C 1017.8 hPa ENE 1.6 km/h 6.4 km/h 49 % 0.0 mm
11:22 12.6 °C 1.9 °C 1017.8 hPa NE 1.6 km/h 6.4 km/h 48 % 0.0 mm
11:32 12.9 °C 2.2 °C 1017.8 hPa East 1.6 km/h 11.3 km/h 48 % 0.0 mm
11:37 13.1 °C 1.7 °C 1017.8 hPa NNE 3.2 km/h 11.3 km/h 46 % 0.0 mm
11:42 13.1 °C 1.7 °C 1017.8 hPa ENE 8.0 km/h 11.3 km/h 46 % 0.0 mm
11:52 13.5 °C 2.1 °C 1017.8 hPa NE 6.4 km/h 11.3 km/h 46 % 0.0 mm
11:57 13.6 °C 1.9 °C 1017.8 hPa NNE 6.4 km/h 11.3 km/h 45 % 0.0 mm
12:02 13.7 °C 2.6 °C 1017.8 hPa NNE 9.7 km/h 9.7 km/h 47 % 0.0 mm
12:12 13.8 °C 2.7 °C 1017.5 hPa ENE 3.2 km/h 11.3 km/h 47 % 0.0 mm
12:17 13.7 °C 2.0 °C 1017.5 hPa North 1.6 km/h 11.3 km/h 45 % 0.0 mm
12:22 13.8 °C 2.7 °C 1017.5 hPa NNE 4.8 km/h 11.3 km/h 47 % 0.0 mm
12:32 14.2 °C 2.7 °C 1017.5 hPa NE 9.7 km/h 11.3 km/h 46 % 0.0 mm
12:42 14.4 °C 3.2 °C 1017.2 hPa ENE 6.4 km/h 14.5 km/h 47 % 0.0 mm
12:47 14.7 °C 2.9 °C 1017.2 hPa ENE 4.8 km/h 14.5 km/h 45 % 0.0 mm
12:57 15.0 °C 2.2 °C 1017.2 hPa NW 8.0 km/h 9.7 km/h 42 % 0.0 mm
13:02 15.0 °C 2.2 °C 1016.8 hPa NNE 1.6 km/h 11.3 km/h 42 % 0.0 mm
13:12 15.3 °C 2.1 °C 1016.5 hPa North 6.4 km/h 11.3 km/h 41 % 0.0 mm
13:17 15.2 °C 2.0 °C 1016.5 hPa NE 3.2 km/h 12.9 km/h 41 % 0.0 mm
13:22 15.2 °C 1.7 °C 1016.5 hPa WNW 1.6 km/h 12.9 km/h 40 % 0.0 mm
13:32 15.6 °C 2.7 °C 1016.1 hPa WNW 8.0 km/h 17.7 km/h 42 % 0.0 mm
13:42 15.8 °C 2.2 °C 1016.1 hPa NE 1.6 km/h 17.7 km/h 40 % 0.0 mm
13:47 16.1 °C 2.5 °C 1016.1 hPa WNW 1.6 km/h 11.3 km/h 40 % 0.0 mm
13:52 16.3 °C 3.4 °C 1016.1 hPa North 1.6 km/h 11.3 km/h 42 % 0.0 mm
13:57 16.6 °C 2.6 °C 1016.1 hPa North 3.2 km/h 11.3 km/h 39 % 0.0 mm
14:02 16.6 °C 1.5 °C 1015.8 hPa NNW 3.2 km/h 11.3 km/h 36 % 0.0 mm
14:12 16.9 °C 1.3 °C 1015.8 hPa West 1.6 km/h 8.0 km/h 35 % 0.0 mm
14:17 16.6 °C 1.1 °C 1015.8 hPa NW 3.2 km/h 9.7 km/h 35 % 0.0 mm
14:22 16.9 °C 2.1 °C 1015.8 hPa WSW 4.8 km/h 9.7 km/h 37 % 0.0 mm
14:32 17.1 °C 2.3 °C 1015.5 hPa NNE 4.8 km/h 9.7 km/h 37 % 0.0 mm
14:42 17.4 °C 2.2 °C 1015.5 hPa South 3.2 km/h 9.7 km/h 36 % 0.0 mm
14:47 17.7 °C 2.0 °C 1015.5 hPa Calm   4.8 km/h 35 % 0.0 mm
14:52 17.8 °C 2.9 °C 1015.5 hPa ENE 1.6 km/h 4.8 km/h 37 % 0.0 mm
14:57 17.8 °C 2.9 °C 1015.5 hPa East 6.4 km/h 8.0 km/h 37 % 0.0 mm
15:02 17.9 °C 3.0 °C 1015.5 hPa NNW 3.2 km/h 8.0 km/h 37 % 0.0 mm
15:07 18.1 °C 3.6 °C 1015.1 hPa Calm   8.0 km/h 38 % 0.0 mm
15:12 18.1 °C 2.8 °C 1015.1 hPa WNW 4.8 km/h 8.0 km/h 36 % 0.0 mm
15:17 17.8 °C 3.3 °C 1015.1 hPa NW 3.2 km/h 9.7 km/h 38 % 0.0 mm
15:22 18.2 °C 2.9 °C 1014.8 hPa East 4.8 km/h 9.7 km/h 36 % 0.0 mm
15:32 18.4 °C 3.4 °C 1014.8 hPa ENE 1.6 km/h 9.7 km/h 37 % 0.0 mm
15:37 18.7 °C 3.7 °C 1014.8 hPa WNW 3.2 km/h 8.0 km/h 37 % 0.0 mm
15:42 18.8 °C 3.8 °C 1014.4 hPa WSW 1.6 km/h 8.0 km/h 37 % 0.0 mm
15:47 18.9 °C 3.5 °C 1014.4 hPa NNW 4.8 km/h 8.0 km/h 36 % 0.0 mm
15:52 18.6 °C 3.2 °C 1014.4 hPa NNE 3.2 km/h 8.0 km/h 36 % 0.0 mm
15:57 18.4 °C 3.1 °C 1014.4 hPa NNW 4.8 km/h 11.3 km/h 36 % 0.0 mm
16:02 18.2 °C 3.6 °C 1014.4 hPa NNE 6.4 km/h 11.3 km/h 38 % 0.0 mm
16:12 18.1 °C 3.2 °C 1014.1 hPa NE 11.3 km/h 11.3 km/h 37 % 0.0 mm
16:17 18.1 °C 3.2 °C 1014.1 hPa East 6.4 km/h 12.9 km/h 37 % 0.0 mm
16:22 18.4 °C 3.1 °C 1014.1 hPa SW 1.6 km/h 12.9 km/h 36 % 0.0 mm
16:27 18.4 °C 2.7 °C 1013.8 hPa ESE 1.6 km/h 12.9 km/h 35 % 0.0 mm
16:32 18.4 °C 3.1 °C 1013.8 hPa East 3.2 km/h 12.9 km/h 36 % 0.0 mm
16:37 18.5 °C 3.5 °C 1013.8 hPa West 3.2 km/h 8.0 km/h 37 % 0.0 mm
16:42 18.7 °C 4.1 °C 1013.8 hPa NW 4.8 km/h 8.0 km/h 38 % 0.0 mm
16:52 18.7 °C 2.9 °C 1013.4 hPa WNW 1.6 km/h 11.3 km/h 35 % 0.0 mm
16:57 18.7 °C 2.9 °C 1013.4 hPa Calm   11.3 km/h 35 % 0.0 mm
17:02 19.1 °C 3.3 °C 1013.4 hPa WNW 3.2 km/h 11.3 km/h 35 % 0.0 mm
17:12 18.4 °C 2.7 °C 1013.4 hPa Calm   11.3 km/h 35 % 0.0 mm
17:17 18.6 °C 4.0 °C 1013.1 hPa North 6.4 km/h 11.3 km/h 38 % 0.0 mm
17:22 18.6 °C 4.4 °C 1013.1 hPa NNE 3.2 km/h 11.3 km/h 39 % 0.0 mm
17:32 18.3 °C 4.5 °C 1013.1 hPa West 1.6 km/h 11.3 km/h 40 % 0.0 mm
17:42 18.2 °C 4.0 °C 1013.1 hPa WNW 3.2 km/h 11.3 km/h 39 % 0.0 mm
17:47 18.2 °C 4.0 °C 1013.1 hPa WNW 1.6 km/h 11.3 km/h 39 % 0.0 mm
17:52 18.2 °C 4.4 °C 1013.1 hPa West 1.6 km/h 11.3 km/h 40 % 0.0 mm
18:02 18.4 °C 4.9 °C 1013.1 hPa North 8.0 km/h 11.3 km/h 41 % 0.0 mm
18:12 18.4 °C 3.8 °C 1013.1 hPa NNW 8.0 km/h 11.3 km/h 38 % 0.0 mm
18:17 18.6 °C 3.6 °C 1013.1 hPa NW 3.2 km/h 14.5 km/h 37 % 0.0 mm
18:22 18.4 °C 3.8 °C 1012.8 hPa NNW 1.6 km/h 14.5 km/h 38 % 0.0 mm
18:32 18.6 °C 4.4 °C 1012.8 hPa NNW 3.2 km/h 11.3 km/h 39 % 0.0 mm
18:42 18.4 °C 4.6 °C 1012.8 hPa Calm   12.9 km/h 40 % 0.0 mm
18:47 18.3 °C 4.1 °C 1012.8 hPa NNW 1.6 km/h 12.9 km/h 39 % 0.0 mm
18:57 18.0 °C 3.5 °C 1012.8 hPa NNW 3.2 km/h 12.9 km/h 38 % 0.0 mm
19:02 17.9 °C 4.1 °C 1012.8 hPa NW 9.7 km/h 12.9 km/h 40 % 0.0 mm
19:12 17.3 °C 3.9 °C 1012.8 hPa North 3.2 km/h 12.9 km/h 41 % 0.0 mm
19:17 17.1 °C 3.7 °C 1012.8 hPa North 3.2 km/h 11.3 km/h 41 % 0.0 mm
19:22 16.9 °C 3.9 °C 1012.8 hPa NNW 3.2 km/h 11.3 km/h 42 % 0.0 mm
19:27 16.7 °C 4.1 °C 1012.8 hPa NW 1.6 km/h 9.7 km/h 43 % 0.0 mm
19:32 16.6 °C 3.6 °C 1012.8 hPa North 4.8 km/h 9.7 km/h 42 % 0.0 mm
19:37 16.7 °C 4.4 °C 1012.8 hPa North 4.8 km/h 11.3 km/h 44 % 0.0 mm
19:42 16.6 °C 4.0 °C 1012.8 hPa NW 6.4 km/h 11.3 km/h 43 % 0.0 mm
19:47 16.4 °C 3.8 °C 1012.4 hPa North 1.6 km/h 9.7 km/h 43 % 0.0 mm
19:52 16.2 °C 3.3 °C 1012.4 hPa NNW 4.8 km/h 9.7 km/h 42 % 0.0 mm
19:57 16.1 °C 2.8 °C 1012.4 hPa NNW 3.2 km/h 8.0 km/h 41 % 0.0 mm
20:02 15.9 °C 3.0 °C 1012.4 hPa NW 3.2 km/h 8.0 km/h 42 % 0.0 mm
20:12 15.4 °C 3.2 °C 1012.4 hPa Calm   8.0 km/h 44 % 0.0 mm
20:17 15.1 °C 2.9 °C 1012.4 hPa NW 1.6 km/h 6.4 km/h 44 % 0.0 mm
20:22 15.1 °C 2.9 °C 1012.4 hPa Calm   6.4 km/h 44 % 0.0 mm
20:27 14.9 °C 2.8 °C 1012.4 hPa NW 3.2 km/h 3.2 km/h 44 % 0.0 mm
20:32 14.8 °C 2.7 °C 1012.4 hPa NW 1.6 km/h 3.2 km/h 44 % 0.0 mm
20:37 14.6 °C 2.8 °C 1012.4 hPa NW 1.6 km/h 4.8 km/h 45 % 0.0 mm
20:47 14.2 °C 2.7 °C 1012.1 hPa NW 1.6 km/h 3.2 km/h 46 % 0.0 mm
20:57 13.9 °C 2.8 °C 1012.1 hPa Calm   3.2 km/h 47 % 0.0 mm
21:02 13.7 °C 2.9 °C 1012.1 hPa Calm   3.2 km/h 48 % 0.0 mm
21:12 13.2 °C 3.0 °C 1012.1 hPa Calm   3.2 km/h 50 % 0.0 mm
21:17 13.1 °C 3.2 °C 1012.4 hPa Calm     51 % 0.0 mm
21:27 12.6 °C 3.0 °C 1012.1 hPa Calm     52 % 0.0 mm
21:32 12.6 °C 3.0 °C 1012.1 hPa Calm     52 % 0.0 mm
21:42 12.6 °C 2.7 °C 1012.4 hPa Calm     51 % 0.0 mm
21:47 12.6 °C 2.7 °C 1012.4 hPa NNW 3.2 km/h 3.2 km/h 51 % 0.0 mm
21:52 12.4 °C 2.8 °C 1012.4 hPa NNW 3.2 km/h 3.2 km/h 52 % 0.0 mm
21:57 12.3 °C 2.7 °C 1012.4 hPa NNW 1.6 km/h 4.8 km/h 52 % 0.0 mm
22:02 12.3 °C 2.7 °C 1012.4 hPa North 1.6 km/h 4.8 km/h 52 % 0.0 mm
22:12 12.1 °C 2.8 °C 1012.8 hPa Calm   4.8 km/h 53 % 0.0 mm
22:17 12.0 °C 2.7 °C 1012.8 hPa Calm   4.8 km/h 53 % 0.0 mm
22:22 11.9 °C 2.6 °C 1012.8 hPa Calm   4.8 km/h 53 % 0.0 mm
22:27 12.0 °C 2.7 °C 1012.8 hPa NW 1.6 km/h 3.2 km/h 53 % 0.0 mm
22:32 11.9 °C 2.6 °C 1012.8 hPa Calm   3.2 km/h 53 % 0.0 mm
22:37 11.9 °C 2.6 °C 1012.8 hPa WNW 1.6 km/h 3.2 km/h 53 % 0.0 mm
22:42 11.9 °C 2.6 °C 1012.8 hPa NW 3.2 km/h 3.2 km/h 53 % 0.0 mm
22:47 11.9 °C 2.9 °C 1012.8 hPa NW 1.6 km/h 4.8 km/h 54 % 0.0 mm
22:52 11.8 °C 2.8 °C 1012.8 hPa NNW 1.6 km/h 4.8 km/h 54 % 0.0 mm
22:57 11.8 °C 2.8 °C 1012.8 hPa NW 1.6 km/h 4.8 km/h 54 % 0.0 mm
23:02 11.8 °C 2.8 °C 1012.8 hPa NW 1.6 km/h 4.8 km/h 54 % 0.0 mm
23:12 11.5 °C 2.8 °C 1012.8 hPa NW 1.6 km/h 4.8 km/h 55 % 0.0 mm
23:17 11.4 °C 2.7 °C 1012.8 hPa NW 1.6 km/h 4.8 km/h 55 % 0.0 mm
23:22 11.4 °C 2.9 °C 1012.8 hPa NW 1.6 km/h 4.8 km/h 56 % 0.0 mm
23:32 11.2 °C 3.0 °C 1012.4 hPa NW 3.2 km/h 4.8 km/h 57 % 0.0 mm
23:37 11.1 °C 2.9 °C 1012.4 hPa NW 1.6 km/h 4.8 km/h 57 % 0.0 mm
23:42 10.9 °C 2.7 °C 1012.4 hPa NW 1.6 km/h 4.8 km/h 57 % 0.0 mm
23:47 10.9 °C 3.0 °C 1012.4 hPa NNW 1.6 km/h 4.8 km/h 58 % 0.0 mm
23:52 10.9 °C 2.7 °C 1012.4 hPa NW 1.6 km/h 4.8 km/h 57 % 0.0 mm
23:57 10.9 °C 3.0 °C 1012.4 hPa NW 3.2 km/h 4.8 km/h 58 % 0.0 mm
Meteo18
Compliments of Weather Underground - 4 mb

Script developed by  Jim McMurry - jmcmurry@mwt.net Adapted for the template by  Wim van der Kuil - Leuven-Template.eu

You find our weather info also at:

European Weather Network

Weather Underground

Equipment we use:

Weather-station
Davis Vue

Weather-program
Meteohub

Weather-server
Raspberry PI 2 B+

Provider
1 and 1

Davis Vue

Meteohub

Raspberry PI 2 B+

1 and 1